Time;durP1;ratioP1;P1;durP2;ratioP2;P2;SDS_P1;SDS_P2;PMS_P1;PMS_P2;Temp;Humidity;BMP_temperature;BMP_pressure;BME280_temperature;BME280_humidity;BME280_pressure;Samples;Min_cycle;Max_cycle;Signal;HPM_P1;HPM_P2
2021/09/10 00:01:10;;;;;;;0.50;0.30;;;19.50;99.90;;;;;;5046093;28;20466;-81
2021/09/10 00:03:37;;;;;;;0.50;0.30;;;19.50;99.90;;;;;;5047799;28;20452;-80
2021/09/10 00:06:04;;;;;;;2.73;1.00;;;19.50;99.90;;;;;;5047620;28;20453;-80
2021/09/10 00:08:30;;;;;;;0.50;0.30;;;19.40;99.90;;;;;;5047346;28;20467;-80
2021/09/10 00:10:57;;;;;;;0.50;0.30;;;19.40;99.90;;;;;;5048256;28;20451;-81
2021/09/10 00:13:25;;;;;;;0.50;0.30;;;19.40;99.90;;;;;;5047086;28;20452;-81
2021/09/10 00:15:52;;;;;;;0.50;0.30;;;19.40;99.90;;;;;;5047714;28;20443;-81
2021/09/10 00:18:19;;;;;;;0.50;0.30;;;19.40;99.90;;;;;;5047216;28;20980;-83
2021/09/10 00:20:45;;;;;;;0.50;0.30;;;19.40;99.90;;;;;;5046671;28;20435;-81
2021/09/10 00:23:12;;;;;;;0.50;0.37;;;19.40;99.90;;;;;;5047600;28;21046;-81
2021/09/10 00:25:40;;;;;;;0.60;0.53;;;19.40;99.90;;;;;;5048127;28;20446;-80
2021/09/10 00:28:07;;;;;;;0.50;0.30;;;19.40;99.90;;;;;;5047560;28;20455;-79
2021/09/10 00:30:35;;;;;;;0.50;0.30;;;19.50;99.90;;;;;;5047055;28;20427;-80
2021/09/10 00:33:01;;;;;;;0.50;0.30;;;19.50;99.90;;;;;;5047452;28;20436;-82
2021/09/10 00:35:28;;;;;;;0.50;0.30;;;19.50;99.90;;;;;;5046985;28;20567;-81
2021/09/10 00:37:55;;;;;;;0.50;0.30;;;19.50;99.90;;;;;;5046983;28;20469;-81
2021/09/10 00:40:22;;;;;;;0.50;0.40;;;19.50;99.90;;;;;;5047105;28;20627;-81
2021/09/10 00:42:48;;;;;;;0.60;0.57;;;19.40;99.90;;;;;;5047295;28;20454;-81
2021/09/10 00:45:15;;;;;;;0.50;0.40;;;19.40;99.90;;;;;;5046797;28;20441;-80
2021/09/10 00:47:43;;;;;;;0.50;0.30;;;19.40;99.90;;;;;;5047697;28;20440;-82
2021/09/10 00:50:11;;;;;;;0.50;0.30;;;19.40;99.90;;;;;;5046615;28;20448;-82
2021/09/10 00:52:38;;;;;;;0.50;0.40;;;19.40;99.90;;;;;;5046678;28;20447;-80
2021/09/10 00:55:05;;;;;;;0.50;0.30;;;19.50;99.90;;;;;;5045351;28;20483;-81
2021/09/10 00:57:32;;;;;;;0.50;0.30;;;19.50;99.90;;;;;;5045360;28;20448;-80
2021/09/10 00:59:59;;;;;;;0.50;0.30;;;19.50;99.90;;;;;;5045949;28;20446;-81
2021/09/10 01:02:26;;;;;;;0.50;0.30;;;19.40;99.90;;;;;;5045637;28;20457;-80
2021/09/10 01:04:55;;;;;;;0.50;0.30;;;19.40;99.90;;;;;;5045095;28;20440;-77
2021/09/10 01:07:24;;;;;;;0.50;0.30;;;19.40;99.90;;;;;;5046102;28;20449;-81
2021/09/10 01:09:51;;;;;;;0.50;0.30;;;19.40;99.90;;;;;;5045343;28;20456;-80
2021/09/10 01:12:18;;;;;;;0.60;0.30;;;19.40;99.90;;;;;;5046855;28;20454;-81
2021/09/10 01:14:46;;;;;;;0.83;0.60;;;19.40;99.90;;;;;;5045805;28;20860;-81
2021/09/10 01:17:14;;;;;;;0.50;0.40;;;19.40;99.90;;;;;;5046540;28;20443;-80
2021/09/10 01:19:40;;;;;;;0.50;0.50;;;19.40;99.90;;;;;;5045671;28;20467;-82
2021/09/10 01:22:09;;;;;;;0.50;0.40;;;19.40;99.90;;;;;;5045760;28;20442;-81
2021/09/10 01:24:39;;;;;;;0.50;0.30;;;19.40;99.90;;;;;;5046915;28;20921;-81
2021/09/10 01:27:07;;;;;;;0.70;0.60;;;19.40;99.90;;;;;;5046453;28;20432;-82
2021/09/10 01:29:35;;;;;;;1.93;1.27;;;19.40;99.90;;;;;;5046067;28;20466;-81
2021/09/10 01:32:03;;;;;;;0.50;0.40;;;19.40;99.90;;;;;;5045452;28;20438;-79
2021/09/10 01:34:30;;;;;;;0.50;0.30;;;19.50;99.90;;;;;;5046125;28;20474;-81
2021/09/10 01:36:57;;;;;;;0.50;0.37;;;19.50;99.90;;;;;;5045734;28;20447;-81
2021/09/10 01:39:23;;;;;;;0.50;0.30;;;19.50;99.90;;;;;;5045780;28;20463;-81
2021/09/10 01:41:52;;;;;;;0.50;0.30;;;19.50;99.90;;;;;;5045153;28;20439;-82
2021/09/10 01:44:18;;;;;;;0.50;0.30;;;19.60;99.90;;;;;;5045430;28;20436;-79
2021/09/10 01:46:45;;;;;;;0.50;0.30;;;19.60;99.90;;;;;;5045000;28;20444;-81
2021/09/10 01:49:12;;;;;;;0.50;0.30;;;19.60;99.90;;;;;;5045536;28;20459;-81
2021/09/10 01:51:39;;;;;;;0.50;0.30;;;19.60;99.90;;;;;;5046172;28;20449;-81
2021/09/10 01:54:05;;;;;;;0.50;0.40;;;19.70;99.90;;;;;;5045161;28;20439;-81
2021/09/10 01:56:32;;;;;;;0.50;0.40;;;19.60;99.90;;;;;;5044904;28;20806;-81
2021/09/10 01:59:00;;;;;;;0.50;0.40;;;19.70;99.90;;;;;;5045112;28;20622;-80
2021/09/10 02:01:30;;;;;;;0.50;0.30;;;19.60;99.90;;;;;;5045340;28;20453;-81
2021/09/10 02:03:57;;;;;;;0.50;0.40;;;19.70;99.90;;;;;;5045477;28;20476;-82
2021/09/10 02:06:23;;;;;;;1.23;1.23;;;19.70;99.90;;;;;;5045153;28;20473;-80
2021/09/10 02:08:50;;;;;;;0.50;0.30;;;19.70;99.90;;;;;;5044980;28;20464;-81
2021/09/10 02:11:17;;;;;;;0.50;0.30;;;19.70;99.90;;;;;;5046167;28;20444;-81
2021/09/10 02:13:44;;;;;;;0.50;0.40;;;19.60;99.90;;;;;;5045615;28;20592;-80
2021/09/10 02:16:12;;;;;;;0.60;0.50;;;19.60;99.90;;;;;;5044648;28;20479;-81
2021/09/10 02:18:40;;;;;;;0.50;0.30;;;19.70;99.90;;;;;;5045265;28;20459;-81
2021/09/10 02:21:07;;;;;;;0.50;0.30;;;19.70;99.90;;;;;;5044582;28;20451;-80
2021/09/10 02:23:35;;;;;;;0.50;0.30;;;19.70;99.90;;;;;;5043602;28;20441;-81
2021/09/10 02:26:02;;;;;;;0.77;0.70;;;19.70;99.90;;;;;;5044517;28;20435;-81
2021/09/10 02:28:28;;;;;;;0.50;0.30;;;19.70;99.90;;;;;;5043948;28;20463;-78
2021/09/10 02:30:55;;;;;;;0.50;0.40;;;19.60;99.90;;;;;;5044297;28;20435;-80
2021/09/10 02:33:23;;;;;;;0.60;0.50;;;19.60;99.90;;;;;;5045299;28;20435;-81
2021/09/10 02:35:50;;;;;;;0.50;0.40;;;19.60;99.90;;;;;;5043908;28;20474;-80
2021/09/10 02:38:17;;;;;;;0.60;0.57;;;19.60;99.90;;;;;;5044187;28;20451;-82
2021/09/10 02:40:44;;;;;;;1.10;0.80;;;19.60;99.90;;;;;;5043889;28;20447;-81
2021/09/10 02:43:11;;;;;;;0.50;0.30;;;19.60;99.90;;;;;;5044057;28;20872;-81
2021/09/10 02:45:37;;;;;;;0.50;0.40;;;19.60;99.90;;;;;;5043175;28;20449;-81
2021/09/10 02:48:05;;;;;;;0.50;0.30;;;19.60;99.90;;;;;;5044310;28;20512;-78
2021/09/10 02:50:33;;;;;;;0.60;0.43;;;19.50;99.90;;;;;;5043908;28;20440;-78
2021/09/10 02:53:00;;;;;;;3.70;1.30;;;19.50;99.90;;;;;;5043755;28;20446;-80
2021/09/10 02:55:27;;;;;;;0.50;0.40;;;19.50;99.90;;;;;;5043526;28;20486;-81
2021/09/10 02:57:53;;;;;;;0.50;0.40;;;19.50;99.90;;;;;;5044118;28;20480;-81
2021/09/10 03:00:20;;;;;;;2.77;2.57;;;19.50;99.90;;;;;;5043451;28;20942;-81
2021/09/10 03:02:47;;;;;;;1.20;1.10;;;19.40;99.90;;;;;;5044372;28;20461;-80
2021/09/10 03:05:14;;;;;;;1.60;1.50;;;19.40;99.90;;;;;;5044032;28;20455;-80
2021/09/10 03:07:42;;;;;;;0.50;0.30;;;19.40;99.90;;;;;;5043351;28;20438;-81
2021/09/10 03:10:10;;;;;;;9.47;1.00;;;19.40;99.90;;;;;;5043597;28;20446;-80
2021/09/10 03:12:39;;;;;;;0.50;0.30;;;19.30;99.90;;;;;;5044241;28;20527;-81
2021/09/10 03:15:08;;;;;;;0.80;0.80;;;19.30;99.90;;;;;;5044076;28;20475;-80
2021/09/10 03:17:35;;;;;;;0.50;0.47;;;19.30;99.90;;;;;;5043424;28;20960;-80
2021/09/10 03:20:02;;;;;;;1.03;1.03;;;19.30;99.90;;;;;;5042139;28;20928;-79
2021/09/10 03:22:28;;;;;;;1.07;0.90;;;19.20;99.90;;;;;;5043800;28;20440;-81
2021/09/10 03:24:56;;;;;;;0.50;0.30;;;19.20;99.90;;;;;;5044009;28;20436;-80
2021/09/10 03:27:23;;;;;;;0.50;0.30;;;19.20;99.90;;;;;;5044491;28;20439;-80
2021/09/10 03:29:50;;;;;;;0.50;0.30;;;19.20;99.90;;;;;;5043105;28;20467;-79
2021/09/10 03:32:17;;;;;;;0.50;0.30;;;19.20;99.90;;;;;;5043940;28;20440;-80
2021/09/10 03:34:44;;;;;;;0.50;0.30;;;19.20;99.90;;;;;;5042821;28;21004;-80
2021/09/10 03:37:12;;;;;;;0.50;0.40;;;19.10;99.90;;;;;;5037414;28;20561;-81
2021/09/10 03:39:39;;;;;;;0.50;0.30;;;19.10;99.90;;;;;;5040243;28;20462;-80
2021/09/10 03:42:07;;;;;;;1.10;1.10;;;19.10;99.90;;;;;;5043242;28;20446;-81
2021/09/10 03:44:34;;;;;;;1.23;0.70;;;19.00;99.90;;;;;;5042632;28;20975;-83
2021/09/10 03:47:04;;;;;;;0.50;0.40;;;19.10;99.90;;;;;;5044107;28;20442;-82
2021/09/10 03:49:31;;;;;;;1.43;1.37;;;19.10;99.90;;;;;;5042132;28;20994;-80
2021/09/10 03:51:58;;;;;;;1.00;0.97;;;19.00;99.90;;;;;;5043064;28;20438;-81
2021/09/10 03:54:25;;;;;;;0.50;0.50;;;19.10;99.90;;;;;;5041967;28;20445;-82
2021/09/10 03:56:51;;;;;;;0.70;0.40;;;19.10;99.90;;;;;;5042093;28;20478;-81
2021/09/10 03:59:20;;;;;;;0.50;0.50;;;19.00;99.90;;;;;;5042106;28;20469;-82
2021/09/10 04:01:46;;;;;;;0.50;0.30;;;19.00;99.90;;;;;;5041300;28;20439;-81
2021/09/10 04:04:13;;;;;;;0.50;0.30;;;19.00;99.90;;;;;;5041664;28;20445;-82
2021/09/10 04:06:40;;;;;;;0.50;0.40;;;19.00;99.90;;;;;;5040938;28;20975;-82
2021/09/10 04:09:07;;;;;;;0.50;0.30;;;19.00;99.90;;;;;;5040855;28;20474;-81
2021/09/10 04:11:35;;;;;;;0.50;0.30;;;19.00;99.90;;;;;;5041017;28;20448;-79
2021/09/10 04:14:01;;;;;;;0.50;0.30;;;19.00;99.90;;;;;;5040726;28;20448;-81
2021/09/10 04:16:29;;;;;;;0.50;0.30;;;18.90;99.90;;;;;;5040498;28;20474;-83
2021/09/10 04:18:56;;;;;;;0.50;0.30;;;18.80;99.90;;;;;;5040189;28;20459;-81
2021/09/10 04:21:23;;;;;;;0.50;0.40;;;18.80;99.90;;;;;;5039554;28;20440;-81
2021/09/10 04:23:50;;;;;;;0.50;0.30;;;18.80;99.90;;;;;;5039805;28;20448;-81
2021/09/10 04:26:17;;;;;;;0.50;0.30;;;18.80;99.90;;;;;;5038405;28;20434;-83
2021/09/10 04:28:46;;;;;;;0.50;0.30;;;18.70;99.90;;;;;;5037385;28;20467;-79
2021/09/10 04:31:13;;;;;;;0.50;0.40;;;18.70;99.90;;;;;;5039490;28;20529;-83
2021/09/10 04:33:41;;;;;;;0.50;0.30;;;18.70;99.90;;;;;;5038726;28;20890;-81
2021/09/10 04:36:08;;;;;;;0.50;0.30;;;18.70;99.90;;;;;;5038453;28;20483;-80
2021/09/10 04:38:36;;;;;;;4.53;1.80;;;18.60;99.90;;;;;;5038192;28;20472;-81
2021/09/10 04:41:02;;;;;;;0.50;0.40;;;18.60;99.90;;;;;;5037902;28;20433;-80
2021/09/10 04:43:29;;;;;;;0.50;0.37;;;18.60;99.90;;;;;;5037972;28;20435;-81
2021/09/10 04:45:56;;;;;;;0.50;0.30;;;18.60;99.90;;;;;;5040738;28;20436;-81
2021/09/10 04:48:23;;;;;;;0.60;0.47;;;18.60;99.90;;;;;;5043274;28;20465;-79
2021/09/10 04:50:51;;;;;;;0.50;0.40;;;18.60;99.90;;;;;;5044787;28;20442;-80
2021/09/10 04:53:18;;;;;;;0.50;0.30;;;18.60;99.90;;;;;;5043939;28;20443;-79
2021/09/10 04:55:44;;;;;;;0.50;0.30;;;18.60;99.90;;;;;;5043819;28;20478;-81
2021/09/10 04:58:11;;;;;;;0.50;0.30;;;18.60;99.90;;;;;;5043293;28;20568;-79
2021/09/10 05:00:38;;;;;;;0.50;0.30;;;18.50;99.90;;;;;;5044384;28;20446;-80
2021/09/10 05:03:05;;;;;;;0.50;0.30;;;18.60;99.90;;;;;;5043331;28;20819;-79
2021/09/10 05:05:31;;;;;;;0.60;0.60;;;18.60;99.90;;;;;;5041783;28;20439;-80
2021/09/10 05:07:59;;;;;;;0.50;0.30;;;18.60;99.90;;;;;;5039552;28;20481;-80
2021/09/10 05:10:26;;;;;;;0.50;0.40;;;18.50;99.90;;;;;;5040572;28;20429;-80
2021/09/10 05:12:53;;;;;;;0.50;0.30;;;18.60;99.90;;;;;;5040095;28;20446;-79
2021/09/10 05:15:19;;;;;;;0.50;0.40;;;18.60;99.90;;;;;;5039025;28;20484;-80
2021/09/10 05:17:46;;;;;;;0.50;0.40;;;18.60;99.90;;;;;;5040107;28;20423;-80
2021/09/10 05:20:13;;;;;;;0.50;0.30;;;18.60;99.90;;;;;;5040301;28;20447;-79
2021/09/10 05:22:41;;;;;;;0.50;0.40;;;18.60;99.90;;;;;;5040409;28;20465;-78
2021/09/10 05:25:10;;;;;;;0.60;0.40;;;18.60;99.90;;;;;;5040230;28;20481;-78
2021/09/10 05:27:37;;;;;;;0.50;0.37;;;18.60;99.90;;;;;;5041593;28;20984;-80
2021/09/10 05:30:04;;;;;;;1.10;0.83;;;18.60;99.90;;;;;;5041041;28;20442;-80
2021/09/10 05:32:31;;;;;;;6.83;2.50;;;18.70;99.90;;;;;;5043338;28;20441;-83
2021/09/10 05:34:58;;;;;;;0.50;0.30;;;18.70;99.90;;;;;;5034598;28;20443;-81
2021/09/10 05:37:25;;;;;;;0.50;0.30;;;18.80;99.90;;;;;;5041197;28;20478;-80
2021/09/10 05:39:51;;;;;;;0.50;0.30;;;18.80;99.90;;;;;;5036345;28;20777;-79
2021/09/10 05:42:20;;;;;;;0.50;0.40;;;18.80;99.90;;;;;;5037096;28;20902;-78
2021/09/10 05:44:46;;;;;;;2.40;2.30;;;18.80;99.90;;;;;;5041656;28;20445;-79
2021/09/10 05:47:13;;;;;;;0.50;0.40;;;18.80;99.90;;;;;;5040614;28;20439;-77
2021/09/10 05:49:40;;;;;;;0.50;0.30;;;18.90;99.90;;;;;;5041196;28;20464;-80
2021/09/10 05:52:09;;;;;;;0.60;0.50;;;18.90;99.90;;;;;;5042884;28;20970;-80
2021/09/10 05:54:36;;;;;;;0.50;0.30;;;18.90;99.90;;;;;;5039449;28;20511;-81
2021/09/10 05:57:04;;;;;;;0.57;0.50;;;18.90;99.90;;;;;;5031812;28;20497;-79
2021/09/10 05:59:32;;;;;;;1.53;1.43;;;19.10;99.90;;;;;;5037252;28;20624;-78
2021/09/10 06:01:59;;;;;;;0.50;0.40;;;19.30;99.90;;;;;;5038301;28;20446;-79
2021/09/10 06:04:26;;;;;;;0.50;0.30;;;19.60;99.90;;;;;;5039949;28;20451;-82
2021/09/10 06:06:53;;;;;;;0.50;0.30;;;20.10;99.90;;;;;;5040241;28;20444;-79
2021/09/10 06:09:19;;;;;;;0.50;0.30;;;20.20;99.90;;;;;;5039719;28;20466;-80
2021/09/10 06:11:46;;;;;;;0.50;0.30;;;20.20;99.90;;;;;;5041297;28;20450;-79
2021/09/10 06:14:13;;;;;;;2.40;1.50;;;20.20;99.90;;;;;;5042881;28;20445;-80
2021/09/10 06:16:41;;;;;;;0.50;0.30;;;20.20;99.90;;;;;;5041225;28;20521;-80
2021/09/10 06:19:08;;;;;;;0.50;0.30;;;20.20;99.90;;;;;;5039679;28;20464;-79
2021/09/10 06:21:34;;;;;;;0.50;0.50;;;20.20;99.90;;;;;;5039456;28;20823;-78
2021/09/10 06:24:01;;;;;;;0.50;0.40;;;20.20;99.90;;;;;;5039647;28;20441;-79
2021/09/10 06:26:29;;;;;;;0.87;0.60;;;20.20;99.90;;;;;;5039228;28;20434;-79
2021/09/10 06:28:55;;;;;;;1.63;1.53;;;20.20;99.90;;;;;;5040089;28;20468;-78
2021/09/10 06:31:22;;;;;;;0.50;0.30;;;20.20;99.90;;;;;;5040966;28;20439;-79
2021/09/10 06:33:50;;;;;;;0.50;0.30;;;20.30;99.90;;;;;;5040242;28;20445;-80
2021/09/10 06:36:17;;;;;;;2.10;2.00;;;20.30;99.90;;;;;;5041902;28;20475;-80
2021/09/10 06:38:44;;;;;;;0.50;0.30;;;20.40;99.90;;;;;;5042068;28;20463;-81
2021/09/10 06:41:10;;;;;;;0.50;0.30;;;20.40;99.90;;;;;;5042284;28;20441;-80
2021/09/10 06:43:37;;;;;;;0.50;0.43;;;20.40;99.90;;;;;;5041725;28;20511;-82
2021/09/10 06:46:04;;;;;;;0.60;0.60;;;20.50;99.90;;;;;;5041264;28;20441;-80
2021/09/10 06:48:31;;;;;;;0.80;0.80;;;20.50;99.90;;;;;;5042075;28;20460;-79
2021/09/10 06:50:59;;;;;;;0.60;0.50;;;20.60;99.90;;;;;;5040979;28;20452;-80
2021/09/10 06:53:26;;;;;;;0.50;0.50;;;20.70;99.90;;;;;;5039903;28;20441;-79
2021/09/10 06:55:53;;;;;;;0.50;0.30;;;20.70;99.90;;;;;;5040661;28;20481;-80
2021/09/10 06:58:19;;;;;;;0.50;0.30;;;21.00;99.90;;;;;;5039259;28;20462;-79
2021/09/10 07:00:46;;;;;;;0.50;0.30;;;21.20;99.90;;;;;;5038353;28;20506;-78
2021/09/10 07:03:13;;;;;;;0.50;0.30;;;21.40;99.90;;;;;;5037843;28;20437;-77
2021/09/10 07:05:39;;;;;;;1.53;1.43;;;21.60;99.90;;;;;;5039525;28;20439;-80
2021/09/10 07:08:08;;;;;;;0.50;0.30;;;22.00;99.90;;;;;;5037885;28;20555;-79
2021/09/10 07:10:35;;;;;;;0.80;0.80;;;23.30;99.90;;;;;;5037230;28;20439;-75
2021/09/10 07:13:02;;;;;;;0.87;0.73;;;24.90;99.90;;;;;;5036837;28;20476;-79
2021/09/10 07:15:29;;;;;;;0.50;0.30;;;26.40;99.90;;;;;;5039472;28;20462;-80
2021/09/10 07:17:55;;;;;;;0.50;0.30;;;27.70;99.90;;;;;;5039510;28;20482;-82
2021/09/10 07:20:22;;;;;;;0.50;0.30;;;28.90;99.90;;;;;;5040538;28;20448;-82
2021/09/10 07:22:49;;;;;;;0.50;0.30;;;30.00;99.90;;;;;;5039579;28;20445;-80
2021/09/10 07:25:17;;;;;;;1.90;1.10;;;30.50;99.90;;;;;;5041399;28;20442;-81
2021/09/10 07:27:44;;;;;;;0.80;0.47;;;30.20;99.90;;;;;;5042126;28;20438;-81
2021/09/10 07:30:12;;;;;;;0.70;0.70;;;29.30;99.90;;;;;;5041632;28;20452;-81
2021/09/10 07:32:39;;;;;;;0.50;0.30;;;29.20;99.90;;;;;;5042094;28;20448;-80
2021/09/10 07:35:07;;;;;;;0.90;0.70;;;30.00;99.90;;;;;;5041629;28;20446;-82
2021/09/10 07:37:34;;;;;;;1.40;1.30;;;31.30;99.90;;;;;;5040523;28;20481;-78
2021/09/10 07:40:01;;;;;;;0.50;0.30;;;32.10;99.90;;;;;;5040670;28;20975;-78
2021/09/10 07:42:29;;;;;;;0.67;0.67;;;32.40;99.90;;;;;;5041696;28;20458;-81
2021/09/10 07:44:55;;;;;;;0.50;0.30;;;33.30;99.90;;;;;;5040635;28;20444;-80
2021/09/10 07:47:22;;;;;;;1.50;0.83;;;34.00;99.90;;;;;;5041765;28;20449;-81
2021/09/10 07:49:49;;;;;;;0.93;0.83;;;34.10;94.10;;;;;;5039536;28;20464;-79
2021/09/10 07:52:16;;;;;;;0.63;0.63;;;32.90;95.00;;;;;;5034665;28;20464;-80
2021/09/10 07:54:42;;;;;;;0.50;0.30;;;31.70;99.90;;;;;;5040822;28;20932;-81
2021/09/10 07:57:11;;;;;;;0.53;0.37;;;31.20;99.90;;;;;;5040164;28;20482;-79
2021/09/10 07:59:39;;;;;;;0.60;0.53;;;30.70;99.90;;;;;;5039671;28;20864;-80
2021/09/10 08:02:06;;;;;;;0.60;0.60;;;29.50;99.90;;;;;;5040555;28;20463;-79
2021/09/10 08:04:33;;;;;;;0.50;0.30;;;28.40;99.90;;;;;;5040277;28;20435;-80
2021/09/10 08:06:59;;;;;;;0.50;0.40;;;27.80;99.90;;;;;;5040910;28;20447;-80
2021/09/10 08:09:26;;;;;;;0.53;0.50;;;27.50;99.90;;;;;;5040244;28;20478;-80
2021/09/10 08:11:53;;;;;;;0.60;0.60;;;27.40;99.90;;;;;;5041493;28;20434;-81
2021/09/10 08:14:20;;;;;;;0.83;0.77;;;26.50;99.90;;;;;;5040440;28;20453;-80
2021/09/10 08:16:48;;;;;;;1.00;1.00;;;26.10;99.90;;;;;;5041171;28;20484;-80
2021/09/10 08:19:15;;;;;;;1.50;1.00;;;25.70;99.90;;;;;;5040121;28;20459;-78
2021/09/10 08:21:42;;;;;;;1.87;0.90;;;25.50;99.90;;;;;;5041570;28;20443;-80
2021/09/10 08:24:10;;;;;;;0.50;0.30;;;25.30;99.90;;;;;;5044678;28;20467;-81
2021/09/10 08:26:36;;;;;;;0.60;0.50;;;25.40;99.90;;;;;;5045336;28;21013;-80
2021/09/10 08:29:03;;;;;;;0.60;0.40;;;25.30;99.90;;;;;;5043887;28;20458;-79
2021/09/10 08:31:30;;;;;;;1.10;0.63;;;25.20;99.90;;;;;;5043949;28;20444;-80
2021/09/10 08:33:59;;;;;;;1.00;1.00;;;25.90;99.90;;;;;;5042941;28;20446;-79
2021/09/10 08:36:25;;;;;;;0.50;0.40;;;27.00;99.90;;;;;;5042265;28;20483;-79
2021/09/10 08:38:52;;;;;;;0.60;0.60;;;27.90;99.90;;;;;;5042051;28;20457;-79
2021/09/10 08:41:23;;;;;;;0.50;0.40;;;28.90;99.90;;;;;;5042035;28;20477;-81
2021/09/10 08:43:50;;;;;;;0.60;0.60;;;29.80;99.90;;;;;;5041406;28;20448;-80
2021/09/10 08:46:17;;;;;;;0.50;0.30;;;30.60;99.90;;;;;;5041657;28;20453;-79
2021/09/10 08:48:45;;;;;;;0.87;0.40;;;31.30;99.90;;;;;;5042259;28;20459;-79
2021/09/10 08:51:14;;;;;;;0.50;0.30;;;31.20;99.90;;;;;;5042229;28;20489;-79
2021/09/10 08:53:41;;;;;;;0.50;0.40;;;31.10;99.90;;;;;;5041345;28;20441;-80
2021/09/10 08:56:08;;;;;;;2.40;1.03;;;30.00;99.90;;;;;;5041482;28;20944;-81
2021/09/10 08:58:35;;;;;;;2.00;1.90;;;28.40;99.90;;;;;;5042233;28;21001;-79
2021/09/10 09:01:02;;;;;;;0.50;0.40;;;27.50;99.90;;;;;;5042523;28;20446;-79
2021/09/10 09:03:30;;;;;;;0.50;0.30;;;27.40;99.90;;;;;;5042527;28;20442;-81
2021/09/10 09:05:57;;;;;;;0.50;0.30;;;27.10;99.90;;;;;;5042580;28;20440;-81
2021/09/10 09:08:26;;;;;;;1.10;1.07;;;26.60;99.90;;;;;;5042597;28;20478;-81
2021/09/10 09:11:00;;;;;;;0.63;0.63;;;26.50;99.90;;;;;;5043711;28;20455;-79
2021/09/10 09:13:29;;;;;;;0.60;0.50;;;26.40;99.90;;;;;;5044316;28;20445;-80
2021/09/10 09:16:16;;;;;;;1.30;1.17;;;25.90;99.90;;;;;;5042550;28;20453;-80
2021/09/10 09:18:44;;;;;;;0.50;0.50;;;25.20;99.90;;;;;;5037379;28;20470;-80
2021/09/10 09:21:12;;;;;;;0.50;0.30;;;25.10;99.90;;;;;;5039065;28;20451;-78
2021/09/10 09:23:40;;;;;;;0.50;0.40;;;24.90;99.90;;;;;;5038959;28;20439;-78
2021/09/10 09:26:18;;;;;;;0.70;0.63;;;25.30;99.90;;;;;;5038891;28;20466;-79
2021/09/10 09:28:46;;;;;;;0.50;0.30;;;25.60;99.90;;;;;;5038849;28;20457;-79
2021/09/10 09:31:14;;;;;;;0.50;0.30;;;26.50;99.90;;;;;;5039425;28;20477;-78
2021/09/10 09:33:44;;;;;;;0.50;0.43;;;27.30;99.90;;;;;;5039214;28;20787;-80
2021/09/10 09:36:12;;;;;;;0.50;0.30;;;28.00;99.90;;;;;;5040917;28;20502;-80
2021/09/10 09:38:41;;;;;;;19.20;1.33;;;28.70;99.90;;;;;;5039581;28;20494;-79
2021/09/10 09:41:09;;;;;;;0.50;0.30;;;28.80;99.90;;;;;;5039926;28;20438;-79
2021/09/10 09:43:38;;;;;;;0.50;0.30;;;28.60;99.90;;;;;;5039112;28;20439;-79
2021/09/10 09:46:08;;;;;;;0.50;0.30;;;29.50;99.90;;;;;;5039007;28;20438;-79
2021/09/10 09:48:38;;;;;;;1.20;0.70;;;29.30;99.90;;;;;;5039281;28;20464;-80
2021/09/10 09:51:05;;;;;;;2.10;1.07;;;29.70;99.90;;;;;;5041696;28;20498;-79
2021/09/10 09:53:33;;;;;;;0.50;0.40;;;30.20;99.90;;;;;;5039482;28;20470;-81
2021/09/10 09:56:02;;;;;;;0.50;0.30;;;29.30;99.90;;;;;;5039775;28;20444;-79
2021/09/10 09:58:30;;;;;;;0.70;0.67;;;28.40;99.90;;;;;;5040707;28;20476;-79
2021/09/10 10:00:58;;;;;;;0.50;0.50;;;27.70;99.90;;;;;;5041732;28;20438;-81
2021/09/10 10:03:25;;;;;;;0.50;0.30;;;27.00;99.90;;;;;;5040309;28;20438;-79
2021/09/10 10:06:07;;;;;;;0.50;0.30;;;26.50;99.90;;;;;;5040596;28;20954;-79
2021/09/10 10:08:41;;;;;;;0.50;0.30;;;26.30;99.90;;;;;;5040730;28;20467;-77
2021/09/10 10:11:12;;;;;;;0.50;0.30;;;26.20;99.90;;;;;;5040062;28;20451;-80
2021/09/10 10:13:39;;;;;;;0.50;0.30;;;26.00;99.90;;;;;;5040437;28;20427;-79
2021/09/10 10:16:06;;;;;;;0.50;0.30;;;25.50;99.90;;;;;;5040537;28;20454;-80
2021/09/10 10:18:40;;;;;;;0.50;0.30;;;25.30;99.90;;;;;;5040845;28;20840;-79
2021/09/10 10:21:07;;;;;;;0.50;0.30;;;25.20;99.90;;;;;;5040941;28;20471;-79
2021/09/10 10:23:57;;;;;;;0.50;0.30;;;25.30;99.90;;;;;;5039155;28;20441;-81
2021/09/10 10:26:41;;;;;;;0.60;0.40;;;25.50;99.90;;;;;;5040376;28;20442;-80
2021/09/10 10:29:14;;;;;;;0.50;0.30;;;25.70;99.90;;;;;;5024737;28;20509;-81
2021/09/10 10:32:05;;;;;;;0.53;0.47;;;26.00;99.90;;;;;;5087320;22;20480;-85
2021/09/10 10:34:33;;;;;;;0.50;0.30;;;26.70;99.90;;;;;;5033257;28;20438;-83
2021/09/10 10:37:00;;;;;;;0.50;0.30;;;27.20;99.90;;;;;;5030107;28;20472;-83
2021/09/10 10:39:29;;;;;;;0.50;0.40;;;27.20;99.90;;;;;;5038602;28;20439;-85
2021/09/10 10:42:02;;;;;;;0.83;0.70;;;27.20;99.90;;;;;;5039586;28;20479;-86
2021/09/10 10:44:49;;;;;;;0.50;0.30;;;27.00;99.90;;;;;;5038995;28;20440;-87
2021/09/10 10:47:18;;;;;;;0.50;0.40;;;26.40;99.90;;;;;;5039172;28;20418;-83
2021/09/10 10:49:47;;;;;;;0.50;0.40;;;26.20;99.90;;;;;;5034200;28;20468;-87
2021/09/10 10:52:35;;;;;;;0.70;0.47;;;25.70;99.90;;;;;;5031051;28;20539;-83
2021/09/10 10:55:19;;;;;;;0.50;0.30;;;25.20;99.90;;;;;;5038337;28;20438;-86
2021/09/10 10:57:51;;;;;;;0.50;0.40;;;25.20;99.90;;;;;;5034874;28;20464;-84
2021/09/10 11:00:47;;;;;;;0.50;0.30;;;25.10;99.90;;;;;;5018134;28;20430;-85
2021/09/10 11:03:50;;;;;;;0.67;0.67;;;24.80;99.90;;;;;;5020451;28;20486;-84
2021/09/10 11:06:37;;;;;;;1.43;1.33;;;24.50;99.90;;;;;;5019122;28;20447;-85
2021/09/10 11:09:10;;;;;;;0.80;0.80;;;24.30;99.90;;;;;;5038021;28;20488;-85
2021/09/10 11:11:37;;;;;;;1.47;1.37;;;24.00;99.90;;;;;;5038992;28;20450;-85
2021/09/10 11:14:16;;;;;;;0.50;0.33;;;24.00;99.90;;;;;;5044870;28;20434;-87
2021/09/10 11:16:43;;;;;;;0.60;0.40;;;24.40;99.90;;;;;;5037987;28;20462;-85
2021/09/10 11:19:10;;;;;;;0.60;0.60;;;24.50;99.90;;;;;;5033628;28;20991;-84
2021/09/10 11:21:36;;;;;;;0.50;0.30;;;24.40;99.90;;;;;;5018707;28;20471;-86
2021/09/10 11:24:09;;;;;;;0.60;0.40;;;24.30;99.90;;;;;;5017408;28;20471;-85
2021/09/10 11:26:37;;;;;;;0.70;0.70;;;24.40;99.90;;;;;;5017956;28;20443;-85
2021/09/10 11:29:15;;;;;;;0.50;0.30;;;24.30;99.90;;;;;;5018397;28;20432;-85
2021/09/10 11:31:44;;;;;;;0.50;0.30;;;24.30;99.90;;;;;;5017869;28;20469;-86
2021/09/10 11:34:31;;;;;;;0.50;0.30;;;24.50;99.90;;;;;;5018501;28;20499;-85
2021/09/10 11:37:01;;;;;;;0.50;0.30;;;24.60;99.90;;;;;;5029102;28;20458;-86
2021/09/10 11:39:28;;;;;;;0.50;0.30;;;24.70;99.90;;;;;;5030362;28;20443;-85
2021/09/10 11:41:54;;;;;;;0.50;0.40;;;24.60;99.90;;;;;;5036988;28;20462;-85
2021/09/10 11:44:23;;;;;;;0.80;0.53;;;24.30;99.90;;;;;;5032222;28;20433;-85
2021/09/10 11:46:49;;;;;;;0.50;0.30;;;24.50;99.90;;;;;;5035140;28;20449;-85
2021/09/10 11:49:17;;;;;;;0.50;0.30;;;25.00;99.90;;;;;;5037396;28;20437;-85
2021/09/10 11:51:48;;;;;;;0.60;0.50;;;25.70;99.90;;;;;;5037743;28;20458;-85
2021/09/10 11:54:18;;;;;;;0.50;0.30;;;26.10;99.90;;;;;;5038637;28;20789;-85
2021/09/10 11:56:46;;;;;;;0.67;0.67;;;26.30;99.90;;;;;;5037925;28;20949;-85
2021/09/10 11:59:26;;;;;;;0.50;0.30;;;26.80;99.90;;;;;;5037267;28;20474;-86
2021/09/10 12:01:53;;;;;;;0.50;0.30;;;27.70;99.90;;;;;;5037435;28;20464;-85
2021/09/10 12:04:31;;;;;;;0.50;0.30;;;28.50;99.90;;;;;;5037668;28;20453;-85
2021/09/10 12:07:00;;;;;;;0.50;0.30;;;29.30;99.90;;;;;;5037631;28;20443;-84
2021/09/10 12:09:29;;;;;;;0.50;0.30;;;29.20;99.90;;;;;;5035890;28;20506;-85
2021/09/10 12:12:14;;;;;;;1.10;0.63;;;28.90;99.90;;;;;;5038377;28;20458;-85
2021/09/10 12:14:44;;;;;;;0.50;0.50;;;28.90;99.90;;;;;;5037211;28;20477;-86
2021/09/10 12:17:17;;;;;;;1.20;0.90;;;29.80;99.90;;;;;;5037261;28;20926;-85
2021/09/10 12:19:49;;;;;;;0.50;0.30;;;29.70;99.90;;;;;;5035863;28;20439;-84
2021/09/10 12:22:59;;;;;;;0.50;0.30;;;28.70;99.90;;;;;;5022759;28;20825;-84
2021/09/10 12:25:47;;;;;;;0.50;0.30;;;28.70;99.90;;;;;;5012200;28;20446;-84
2021/09/10 12:28:29;;;;;;;0.50;0.40;;;29.20;99.90;;;;;;5022207;28;20452;-85
2021/09/10 12:31:06;;;;;;;0.50;0.40;;;29.30;99.90;;;;;;5037239;28;20438;-83
2021/09/10 12:33:35;;;;;;;0.50;0.30;;;28.60;99.90;;;;;;5036928;28;21023;-83
2021/09/10 12:36:03;;;;;;;0.50;0.30;;;27.90;99.90;;;;;;5042167;28;20554;-85
2021/09/10 12:38:33;;;;;;;0.50;0.30;;;27.00;99.90;;;;;;5021507;28;20471;-85
2021/09/10 12:41:00;;;;;;;0.60;0.40;;;26.50;99.90;;;;;;5015590;28;20456;-83
2021/09/10 12:43:27;;;;;;;0.50;0.33;;;26.60;99.90;;;;;;5017506;28;20462;-85
2021/09/10 12:45:55;;;;;;;0.50;0.30;;;26.40;99.90;;;;;;5037656;28;20869;-86
2021/09/10 12:48:23;;;;;;;0.50;0.40;;;26.40;99.90;;;;;;5037942;28;20443;-86
2021/09/10 12:50:50;;;;;;;0.50;0.40;;;26.20;99.90;;;;;;5038367;28;20450;-86
2021/09/10 12:53:17;;;;;;;0.50;0.40;;;25.70;99.90;;;;;;5037469;28;20458;-86
2021/09/10 12:55:50;;;;;;;0.60;0.60;;;25.50;99.90;;;;;;5039009;28;20501;-85